Cape Express — HO5337 — position and weather

sailwx.info

Track history (hours):
 
Tides and Currents Weather Stations Pressure Air Temp Water Temp Dewpoint Dewpoint Depression Visibility Wind Speed Wind Dir Waves Ship Positions

Cape Express

Last reported at 2016-May-03 23:10 UTC. Time now 2016-May-05 08:39 UTC.
Position N 26°05' W 079°17'.

Length 29 m; draft 2.2 m.

Type: Cargo ship. MMSI: 370269000.

Date/timePositionNaut miles runAvg speedWind from/ knotsBaromVisibWave heightAir tempDewpointWater temp
2016-May-03 23:10N 26°05' W 079°17'610.2
2016-May-03 22:33N 26°04' W 079°24'1010.1
2016-May-03 21:33N 26°05' W 079°35'10 9.7
2016-May-03 20:33N 26°05' W 079°46'9 9.2
2016-May-03 19:33N 26°05' W 079°56'9 9.0
2016-May-03 18:33N 26°06' W 080°06'3 2.5
2016-May-03 17:33N 26°04' W 080°08'0 0.0
2016-May-03 16:33N 26°04' W 080°08'0 0.0
2016-May-03 15:32N 26°04' W 080°08'0 0.0
2016-May-03 14:32N 26°04' W 080°08'0 0.0
2016-May-03 13:33N 26°04' W 080°08'1 1.1
2016-May-03 12:34N 26°04' W 080°07'6 6.4
2016-May-03 11:33N 26°04' W 079°60'1110.6
2016-May-03 10:33N 26°01' W 079°49'1010.5
2016-May-03 09:33N 25°58' W 079°37'28 0.7
2016-May-01 17:33N 26°25' W 079°42'1212.0
2016-May-01 16:33N 26°17' W 079°51'1211.9
2016-May-01 15:33N 26°09' W 080°01'7 7.0
2016-May-01 14:33N 26°04' W 080°07'1 1.0
2016-May-01 13:33N 26°04' W 080°08'0 0.0
2016-May-01 12:33N 26°04' W 080°08'0 0.0
2016-May-01 11:33N 26°04' W 080°08'0 0.0
2016-May-01 10:33N 26°04' W 080°08'0 0.0
2016-May-01 09:33N 26°04' W 080°08'0 0.0
2016-May-01 08:33N 26°04' W 080°08'0 0.0
2016-May-01 07:33N 26°04' W 080°08'0 0.0
2016-May-01 06:33N 26°04' W 080°08'0 0.0
2016-May-01 05:33N 26°04' W 080°08'0 0.0
2016-May-01 04:33N 26°04' W 080°08'0 0.0
2016-May-01 03:33N 26°04' W 080°08'0 0.0
2016-May-01 02:33N 26°04' W 080°08'0 0.0
2016-May-01 01:33N 26°04' W 080°08'0 0.0
2016-May-01 00:33N 26°04' W 080°08'0 0.0
2016-Apr-30 23:33N 26°04' W 080°08'0 0.0
2016-Apr-30 22:33N 26°04' W 080°08'0 0.0
2016-Apr-30 21:33N 26°04' W 080°08'0 0.3
2016-Apr-30 20:33N 26°04' W 080°08'7 6.5
2016-Apr-30 19:34N 26°03' W 080°00'1111.2
2016-Apr-30 18:33N 25°58' W 079°49'1211.4
2016-Apr-30 17:32N 25°52' W 079°38'0 0.0
2016-Apr-30 07:08N 25°52' W 079°38'5 8.5
2016-Apr-30 06:33N 25°55' W 079°43'8 8.1
2016-Apr-30 05:33N 25°58' W 079°51'8 7.7
2016-Apr-30 04:33N 26°02' W 079°59'8 8.2
2016-Apr-30 03:33N 26°05' W 080°07'2 1.9
2016-Apr-30 02:33N 26°04' W 080°08'0 0.0
2016-Apr-30 01:33N 26°04' W 080°08'0 0.0
2016-Apr-30 00:34N 26°04' W 080°08'0 0.0
2016-Apr-29 23:33N 26°04' W 080°08'0 0.0
2016-Apr-29 22:33N 26°04' W 080°08'0 0.0
2016-Apr-29 21:33N 26°04' W 080°08'0 0.0
2016-Apr-29 20:33N 26°04' W 080°08'0 0.4
2016-Apr-29 19:33N 26°04' W 080°07'2 1.8
2016-Apr-29 18:33N 26°06' W 080°07'10 9.6
2016-Apr-29 17:33N 26°05' W 079°56'10 9.5
2016-Apr-29 16:33N 26°05' W 079°46'1010.0
2016-Apr-29 15:33N 26°04' W 079°35'6 0.1
2016-Apr-27 23:19N 26°05' W 079°28'7 9.8
2016-Apr-27 22:33N 26°05' W 079°36'10 9.5
2016-Apr-27 21:33N 26°05' W 079°47'9 8.7
2016-Apr-27 20:33N 26°05' W 079°56'9 9.3
2016-Apr-27 19:33N 26°05' W 080°07'2 1.8
2016-Apr-27 18:33N 26°04' W 080°08'0 0.0
2016-Apr-27 17:33N 26°04' W 080°08'0 0.0
2016-Apr-27 16:34N 26°04' W 080°08'0 0.0
2016-Apr-27 15:34N 26°04' W 080°08'0 0.0
2016-Apr-27 14:33N 26°04' W 080°08'0 0.0
2016-Apr-27 13:33N 26°04' W 080°08'0 0.0
2016-Apr-27 12:33N 26°04' W 080°08'0 0.0
2016-Apr-27 11:33N 26°04' W 080°08'0 0.0
2016-Apr-27 10:33N 26°04' W 080°08'0 0.0
2016-Apr-27 09:33N 26°04' W 080°08'0 0.0
2016-Apr-27 08:33N 26°04' W 080°08'0 0.0
2016-Apr-27 07:34N 26°04' W 080°08'0 0.0
2016-Apr-27 06:33N 26°04' W 080°08'0 0.0
2016-Apr-27 05:33N 26°04' W 080°08'0 0.0
2016-Apr-27 04:33N 26°04' W 080°08'0 0.0
2016-Apr-27 03:34N 26°04' W 080°08'0 0.0
2016-Apr-27 02:33N 26°04' W 080°08'0 0.0
2016-Apr-27 01:33N 26°04' W 080°08'0 0.2
2016-Apr-27 00:33N 26°04' W 080°08'7 6.6
2016-Apr-26 23:33N 26°05' W 080°00'1010.0
2016-Apr-26 22:33N 26°04' W 079°49'10 9.8
2016-Apr-26 21:33N 26°03' W 079°39'14 0.9
2016-Apr-26 07:14N 26°16' W 079°33'6 9.2
2016-Apr-26 06:33N 26°14' W 079°39'9 9.2
2016-Apr-26 05:33N 26°10' W 079°49'9 9.3
2016-Apr-26 04:33N 26°07' W 079°58'8 7.7
2016-Apr-26 03:33N 26°05' W 080°07'2 1.9
2016-Apr-26 02:33N 26°04' W 080°08'0 0.0
2016-Apr-26 01:33N 26°04' W 080°08'0 0.0
2016-Apr-26 00:33N 26°04' W 080°08'0 0.0
2016-Apr-25 23:33N 26°04' W 080°08'0 0.0
2016-Apr-25 22:33N 26°04' W 080°08'0 0.0
2016-Apr-25 21:33N 26°04' W 080°08'0 0.0
2016-Apr-25 20:33N 26°04' W 080°08'0 0.0
2016-Apr-25 19:33N 26°04' W 080°08'0 0.0
2016-Apr-25 18:33N 26°04' W 080°08'0 0.0
2016-Apr-25 17:33N 26°04' W 080°08'0 0.0
2016-Apr-25 16:33N 26°04' W 080°08'0 0.0
2016-Apr-25 15:33N 26°04' W 080°08'0 0.0
2016-Apr-25 14:33N 26°04' W 080°08'0 0.0
2016-Apr-25 13:33N 26°04' W 080°08'0 0.0
2016-Apr-25 12:34N 26°04' W 080°08'0 0.0
2016-Apr-25 11:33N 26°04' W 080°08'0 0.0
2016-Apr-25 10:33N 26°04' W 080°08'0 0.0
2016-Apr-25 09:33N 26°04' W 080°08'0 0.0
2016-Apr-25 08:33N 26°04' W 080°08'0 0.0
2016-Apr-25 07:33N 26°04' W 080°08'0 0.0
2016-Apr-25 06:33N 26°04' W 080°08'0 0.0
2016-Apr-25 05:33N 26°04' W 080°08'0 0.0
2016-Apr-25 04:33N 26°04' W 080°08'0 0.0
2016-Apr-25 03:33N 26°04' W 080°08'0 0.0
2016-Apr-25 02:33N 26°04' W 080°08'0 0.0
2016-Apr-25 01:33N 26°04' W 080°08'0 0.0
2016-Apr-25 00:33N 26°04' W 080°08'0 0.0
2016-Apr-24 23:34N 26°04' W 080°08'2 2.4
2016-Apr-24 22:34N 26°05' W 080°05'2 1.7
2016-Apr-24 21:33N 26°04' W 080°04'9 8.6
2016-Apr-24 20:33N 26°02' W 079°54'1010.2
2016-Apr-24 19:33N 25°59' W 079°43'1010.3
2016-Apr-24 18:32N 25°56' W 079°32'  
Track history (hours):
 
Tides and Currents Weather Stations Pressure Air Temp Water Temp Dewpoint Dewpoint Depression Visibility Wind Speed Wind Dir Waves Ship Positions

Cape Express

Last reported at 2016-May-03 23:10 UTC. Time now 2016-May-05 08:39 UTC.
Position N 26°05' W 079°17'.

Length 29 m; draft 2.2 m.

Type: Cargo ship. MMSI: 370269000.

Date/timePositionNaut miles runAvg speedWind from/ knotsBaromVisibWave heightAir tempDewpointWater temp
2016-May-03 23:10N 26°05' W 079°17'610.2
2016-May-03 22:33N 26°04' W 079°24'1010.1
2016-May-03 21:33N 26°05' W 079°35'10 9.7
2016-May-03 20:33N 26°05' W 079°46'9 9.2
2016-May-03 19:33N 26°05' W 079°56'9 9.0
2016-May-03 18:33N 26°06' W 080°06'3 2.5
2016-May-03 17:33N 26°04' W 080°08'0 0.0
2016-May-03 16:33N 26°04' W 080°08'0 0.0
2016-May-03 15:32N 26°04' W 080°08'0 0.0
2016-May-03 14:32N 26°04' W 080°08'0 0.0
2016-May-03 13:33N 26°04' W 080°08'1 1.1
2016-May-03 12:34N 26°04' W 080°07'6 6.4
2016-May-03 11:33N 26°04' W 079°60'1110.6
2016-May-03 10:33N 26°01' W 079°49'1010.5
2016-May-03 09:33N 25°58' W 079°37'28 0.7
2016-May-01 17:33N 26°25' W 079°42'1212.0
2016-May-01 16:33N 26°17' W 079°51'1211.9
2016-May-01 15:33N 26°09' W 080°01'7 7.0
2016-May-01 14:33N 26°04' W 080°07'1 1.0
2016-May-01 13:33N 26°04' W 080°08'0 0.0
2016-May-01 12:33N 26°04' W 080°08'0 0.0
2016-May-01 11:33N 26°04' W 080°08'0 0.0
2016-May-01 10:33N 26°04' W 080°08'0 0.0
2016-May-01 09:33N 26°04' W 080°08'0 0.0
2016-May-01 08:33N 26°04' W 080°08'0 0.0
2016-May-01 07:33N 26°04' W 080°08'0 0.0
2016-May-01 06:33N 26°04' W 080°08'0 0.0
2016-May-01 05:33N 26°04' W 080°08'0 0.0
2016-May-01 04:33N 26°04' W 080°08'0 0.0
2016-May-01 03:33N 26°04' W 080°08'0 0.0
2016-May-01 02:33N 26°04' W 080°08'0 0.0
2016-May-01 01:33N 26°04' W 080°08'0 0.0
2016-May-01 00:33N 26°04' W 080°08'0 0.0
2016-Apr-30 23:33N 26°04' W 080°08'0 0.0
2016-Apr-30 22:33N 26°04' W 080°08'0 0.0
2016-Apr-30 21:33N 26°04' W 080°08'0 0.3
2016-Apr-30 20:33N 26°04' W 080°08'7 6.5
2016-Apr-30 19:34N 26°03' W 080°00'1111.2
2016-Apr-30 18:33N 25°58' W 079°49'1211.4
2016-Apr-30 17:32N 25°52' W 079°38'0 0.0
2016-Apr-30 07:08N 25°52' W 079°38'5 8.5
2016-Apr-30 06:33N 25°55' W 079°43'8 8.1
2016-Apr-30 05:33N 25°58' W 079°51'8 7.7
2016-Apr-30 04:33N 26°02' W 079°59'8 8.2
2016-Apr-30 03:33N 26°05' W 080°07'2 1.9
2016-Apr-30 02:33N 26°04' W 080°08'0 0.0
2016-Apr-30 01:33N 26°04' W 080°08'0 0.0
2016-Apr-30 00:34N 26°04' W 080°08'0 0.0
2016-Apr-29 23:33N 26°04' W 080°08'0 0.0
2016-Apr-29 22:33N 26°04' W 080°08'0 0.0
2016-Apr-29 21:33N 26°04' W 080°08'0 0.0
2016-Apr-29 20:33N 26°04' W 080°08'0 0.4
2016-Apr-29 19:33N 26°04' W 080°07'2 1.8
2016-Apr-29 18:33N 26°06' W 080°07'10 9.6
2016-Apr-29 17:33N 26°05' W 079°56'10 9.5
2016-Apr-29 16:33N 26°05' W 079°46'1010.0
2016-Apr-29 15:33N 26°04' W 079°35'6 0.1
2016-Apr-27 23:19N 26°05' W 079°28'7 9.8
2016-Apr-27 22:33N 26°05' W 079°36'10 9.5
2016-Apr-27 21:33N 26°05' W 079°47'9 8.7
2016-Apr-27 20:33N 26°05' W 079°56'9 9.3
2016-Apr-27 19:33N 26°05' W 080°07'2 1.8
2016-Apr-27 18:33N 26°04' W 080°08'0 0.0
2016-Apr-27 17:33N 26°04' W 080°08'0 0.0
2016-Apr-27 16:34N 26°04' W 080°08'0 0.0
2016-Apr-27 15:34N 26°04' W 080°08'0 0.0
2016-Apr-27 14:33N 26°04' W 080°08'0 0.0
2016-Apr-27 13:33N 26°04' W 080°08'0 0.0
2016-Apr-27 12:33N 26°04' W 080°08'0 0.0
2016-Apr-27 11:33N 26°04' W 080°08'0 0.0
2016-Apr-27 10:33N 26°04' W 080°08'0 0.0
2016-Apr-27 09:33N 26°04' W 080°08'0 0.0
2016-Apr-27 08:33N 26°04' W 080°08'0 0.0
2016-Apr-27 07:34N 26°04' W 080°08'0 0.0
2016-Apr-27 06:33N 26°04' W 080°08'0 0.0
2016-Apr-27 05:33N 26°04' W 080°08'0 0.0
2016-Apr-27 04:33N 26°04' W 080°08'0 0.0
2016-Apr-27 03:34N 26°04' W 080°08'0 0.0
2016-Apr-27 02:33N 26°04' W 080°08'0 0.0
2016-Apr-27 01:33N 26°04' W 080°08'0 0.2
2016-Apr-27 00:33N 26°04' W 080°08'7 6.6
2016-Apr-26 23:33N 26°05' W 080°00'1010.0
2016-Apr-26 22:33N 26°04' W 079°49'10 9.8
2016-Apr-26 21:33N 26°03' W 079°39'14 0.9
2016-Apr-26 07:14N 26°16' W 079°33'6 9.2
2016-Apr-26 06:33N 26°14' W 079°39'9 9.2
2016-Apr-26 05:33N 26°10' W 079°49'9 9.3
2016-Apr-26 04:33N 26°07' W 079°58'8 7.7
2016-Apr-26 03:33N 26°05' W 080°07'2 1.9
2016-Apr-26 02:33N 26°04' W 080°08'0 0.0
2016-Apr-26 01:33N 26°04' W 080°08'0 0.0
2016-Apr-26 00:33N 26°04' W 080°08'0 0.0
2016-Apr-25 23:33N 26°04' W 080°08'0 0.0
2016-Apr-25 22:33N 26°04' W 080°08'0 0.0
2016-Apr-25 21:33N 26°04' W 080°08'0 0.0
2016-Apr-25 20:33N 26°04' W 080°08'0 0.0
2016-Apr-25 19:33N 26°04' W 080°08'0 0.0
2016-Apr-25 18:33N 26°04' W 080°08'0 0.0
2016-Apr-25 17:33N 26°04' W 080°08'0 0.0
2016-Apr-25 16:33N 26°04' W 080°08'0 0.0
2016-Apr-25 15:33N 26°04' W 080°08'0 0.0
2016-Apr-25 14:33N 26°04' W 080°08'0 0.0
2016-Apr-25 13:33N 26°04' W 080°08'0 0.0
2016-Apr-25 12:34N 26°04' W 080°08'0 0.0
2016-Apr-25 11:33N 26°04' W 080°08'0 0.0
2016-Apr-25 10:33N 26°04' W 080°08'0 0.0
2016-Apr-25 09:33N 26°04' W 080°08'0 0.0
2016-Apr-25 08:33N 26°04' W 080°08'0 0.0
2016-Apr-25 07:33N 26°04' W 080°08'0 0.0
2016-Apr-25 06:33N 26°04' W 080°08'0 0.0
2016-Apr-25 05:33N 26°04' W 080°08'0 0.0
2016-Apr-25 04:33N 26°04' W 080°08'0 0.0
2016-Apr-25 03:33N 26°04' W 080°08'0 0.0
2016-Apr-25 02:33N 26°04' W 080°08'0 0.0
2016-Apr-25 01:33N 26°04' W 080°08'0 0.0
2016-Apr-25 00:33N 26°04' W 080°08'0 0.0
2016-Apr-24 23:34N 26°04' W 080°08'2 2.4
2016-Apr-24 22:34N 26°05' W 080°05'2 1.7
2016-Apr-24 21:33N 26°04' W 080°04'9 8.6
2016-Apr-24 20:33N 26°02' W 079°54'1010.2
2016-Apr-24 19:33N 25°59' W 079°43'1010.3
2016-Apr-24 18:32N 25°56' W 079°32'  

Dump ship's entire track history